sensor_id;sensor_type;location;lat;lon;timestamp;pressure;altitude;pressure_sealevel;temperature;humidity
33189;BME280;52601;53.070;10.600;2023-07-29T00:02:32;100561.41;;;22.69;100.00
33189;BME280;52601;53.070;10.600;2023-07-29T00:05:18;100562.06;;;22.88;100.00
33189;BME280;52601;53.070;10.600;2023-07-29T00:08:04;100541.59;;;23.05;100.00
33189;BME280;52601;53.070;10.600;2023-07-29T00:10:49;100536.44;;;22.86;100.00
33189;BME280;52601;53.070;10.600;2023-07-29T00:13:34;100549.53;;;22.36;100.00
33189;BME280;52601;53.070;10.600;2023-07-29T00:16:20;100553.19;;;22.17;100.00
33189;BME280;52601;53.070;10.600;2023-07-29T00:19:08;100566.84;;;21.97;100.00
33189;BME280;52601;53.070;10.600;2023-07-29T00:21:54;100560.16;;;22.10;100.00
33189;BME280;52601;53.070;10.600;2023-07-29T00:24:39;100549.13;;;22.58;100.00
33189;BME280;52601;53.070;10.600;2023-07-29T00:27:25;100540.09;;;22.59;100.00
33189;BME280;52601;53.070;10.600;2023-07-29T00:30:11;100535.13;;;22.47;100.00
33189;BME280;52601;53.070;10.600;2023-07-29T00:32:57;100533.72;;;22.07;100.00
33189;BME280;52601;53.070;10.600;2023-07-29T00:35:42;100545.56;;;21.78;100.00
33189;BME280;52601;53.070;10.600;2023-07-29T00:38:28;100547.53;;;21.49;100.00
33189;BME280;52601;53.070;10.600;2023-07-29T00:41:14;100548.22;;;21.87;100.00
33189;BME280;52601;53.070;10.600;2023-07-29T00:44:00;100535.63;;;21.70;100.00
33189;BME280;52601;53.070;10.600;2023-07-29T00:46:46;100538.00;;;22.00;100.00
33189;BME280;52601;53.070;10.600;2023-07-29T00:49:33;100529.59;;;21.95;100.00
33189;BME280;52601;53.070;10.600;2023-07-29T00:52:19;100516.03;;;21.89;100.00
33189;BME280;52601;53.070;10.600;2023-07-29T00:55:05;100516.03;;;21.89;100.00
33189;BME280;52601;53.070;10.600;2023-07-29T00:57:52;100509.59;;;21.99;100.00
33189;BME280;52601;53.070;10.600;2023-07-29T01:00:40;100514.63;;;21.85;100.00
33189;BME280;52601;53.070;10.600;2023-07-29T01:03:25;100519.75;;;21.96;100.00
33189;BME280;52601;53.070;10.600;2023-07-29T01:06:17;100505.25;;;21.98;100.00
33189;BME280;52601;53.070;10.600;2023-07-29T01:09:20;100507.25;;;22.14;100.00
33189;BME280;52601;53.070;10.600;2023-07-29T01:12:19;100507.09;;;22.15;100.00
33189;BME280;52601;53.070;10.600;2023-07-29T01:18:18;100511.91;;;22.29;100.00
33189;BME280;52601;53.070;10.600;2023-07-29T01:21:09;100511.44;;;22.34;100.00
33189;BME280;52601;53.070;10.600;2023-07-29T01:23:59;100512.44;;;22.51;100.00
33189;BME280;52601;53.070;10.600;2023-07-29T01:26:45;100490.09;;;22.77;100.00
33189;BME280;52601;53.070;10.600;2023-07-29T01:29:31;100501.97;;;22.57;100.00
33189;BME280;52601;53.070;10.600;2023-07-29T01:32:21;100509.72;;;22.25;100.00
33189;BME280;52601;53.070;10.600;2023-07-29T01:37:57;100501.91;;;22.32;100.00
33189;BME280;52601;53.070;10.600;2023-07-29T01:40:45;100504.25;;;21.99;100.00
33189;BME280;52601;53.070;10.600;2023-07-29T01:43:31;100494.13;;;22.03;100.00
33189;BME280;52601;53.070;10.600;2023-07-29T01:46:17;100487.03;;;21.67;100.00
33189;BME280;52601;53.070;10.600;2023-07-29T01:49:02;100504.94;;;21.84;100.00
33189;BME280;52601;53.070;10.600;2023-07-29T01:51:48;100491.31;;;22.04;100.00
33189;BME280;52601;53.070;10.600;2023-07-29T01:54:33;100486.50;;;22.08;100.00
33189;BME280;52601;53.070;10.600;2023-07-29T01:57:19;100477.03;;;21.96;100.00
33189;BME280;52601;53.070;10.600;2023-07-29T02:00:05;100487.09;;;22.02;100.00
33189;BME280;52601;53.070;10.600;2023-07-29T02:02:51;100490.00;;;22.08;100.00
33189;BME280;52601;53.070;10.600;2023-07-29T02:05:37;100491.75;;;22.17;100.00
33189;BME280;52601;53.070;10.600;2023-07-29T02:08:22;100491.81;;;22.25;100.00
33189;BME280;52601;53.070;10.600;2023-07-29T02:11:08;100485.50;;;22.26;100.00
33189;BME280;52601;53.070;10.600;2023-07-29T02:13:54;100494.13;;;22.03;100.00
33189;BME280;52601;53.070;10.600;2023-07-29T02:16:40;100497.94;;;22.00;100.00
33189;BME280;52601;53.070;10.600;2023-07-29T02:19:27;100484.41;;;21.84;100.00
33189;BME280;52601;53.070;10.600;2023-07-29T02:22:16;100499.69;;;21.65;100.00
33189;BME280;52601;53.070;10.600;2023-07-29T02:25:02;100491.47;;;21.85;100.00
33189;BME280;52601;53.070;10.600;2023-07-29T02:27:48;100488.50;;;21.61;100.00
33189;BME280;52601;53.070;10.600;2023-07-29T02:30:33;100488.66;;;21.77;100.00
33189;BME280;52601;53.070;10.600;2023-07-29T02:33:19;100488.94;;;21.74;100.00
33189;BME280;52601;53.070;10.600;2023-07-29T02:36:04;100491.31;;;21.87;100.00
33189;BME280;52601;53.070;10.600;2023-07-29T02:38:50;100479.09;;;21.84;100.00
33189;BME280;52601;53.070;10.600;2023-07-29T02:41:36;100483.25;;;21.69;100.00
33189;BME280;52601;53.070;10.600;2023-07-29T02:44:22;100473.09;;;21.73;100.00
33189;BME280;52601;53.070;10.600;2023-07-29T02:47:07;100485.59;;;21.72;100.00
33189;BME280;52601;53.070;10.600;2023-07-29T02:49:53;100481.63;;;21.76;100.00
33189;BME280;52601;53.070;10.600;2023-07-29T02:52:39;100474.06;;;21.72;100.00
33189;BME280;52601;53.070;10.600;2023-07-29T02:55:25;100476.13;;;21.60;100.00
33189;BME280;52601;53.070;10.600;2023-07-29T02:58:11;100478.59;;;21.17;100.00
33189;BME280;52601;53.070;10.600;2023-07-29T03:01:04;100482.06;;;21.54;100.00
33189;BME280;52601;53.070;10.600;2023-07-29T03:03:50;100477.78;;;21.88;100.00
33189;BME280;52601;53.070;10.600;2023-07-29T03:06:36;100479.50;;;21.80;100.00
33189;BME280;52601;53.070;10.600;2023-07-29T03:09:22;100471.31;;;21.64;100.00
33189;BME280;52601;53.070;10.600;2023-07-29T03:12:08;100481.25;;;21.44;100.00
33189;BME280;52601;53.070;10.600;2023-07-29T03:14:53;100474.09;;;21.44;100.00
33189;BME280;52601;53.070;10.600;2023-07-29T03:17:39;100464.59;;;21.60;100.00
33189;BME280;52601;53.070;10.600;2023-07-29T03:20:24;100476.81;;;21.62;100.00
33189;BME280;52601;53.070;10.600;2023-07-29T03:23:11;100469.13;;;21.59;100.00
33189;BME280;52601;53.070;10.600;2023-07-29T03:25:57;100468.13;;;21.78;100.00
33189;BME280;52601;53.070;10.600;2023-07-29T03:28:44;100471.13;;;22.27;100.00
33189;BME280;52601;53.070;10.600;2023-07-29T03:31:29;100457.88;;;22.00;100.00
33189;BME280;52601;53.070;10.600;2023-07-29T03:34:14;100468.19;;;21.68;100.00
33189;BME280;52601;53.070;10.600;2023-07-29T03:37:00;100469.78;;;21.88;100.00
33189;BME280;52601;53.070;10.600;2023-07-29T03:39:46;100481.59;;;21.86;100.00
33189;BME280;52601;53.070;10.600;2023-07-29T03:42:33;100480.31;;;21.90;100.00
33189;BME280;52601;53.070;10.600;2023-07-29T03:45:18;100467.34;;;22.12;100.00
33189;BME280;52601;53.070;10.600;2023-07-29T03:48:04;100475.13;;;21.61;100.00
33189;BME280;52601;53.070;10.600;2023-07-29T03:50:49;100462.44;;;22.25;100.00
33189;BME280;52601;53.070;10.600;2023-07-29T03:53:34;100443.59;;;22.70;100.00
33189;BME280;52601;53.070;10.600;2023-07-29T03:56:21;100443.28;;;22.30;100.00
33189;BME280;52601;53.070;10.600;2023-07-29T03:59:06;100447.25;;;22.52;100.00
33189;BME280;52601;53.070;10.600;2023-07-29T04:01:52;100448.16;;;22.35;100.00
33189;BME280;52601;53.070;10.600;2023-07-29T04:04:38;100450.59;;;22.71;100.00
33189;BME280;52601;53.070;10.600;2023-07-29T04:07:23;100445.53;;;22.43;100.00
33189;BME280;52601;53.070;10.600;2023-07-29T04:10:09;100453.56;;;22.60;100.00
33189;BME280;52601;53.070;10.600;2023-07-29T04:12:55;100463.50;;;22.33;100.00
33189;BME280;52601;53.070;10.600;2023-07-29T04:15:40;100449.56;;;22.90;100.00
33189;BME280;52601;53.070;10.600;2023-07-29T04:18:26;100440.47;;;22.57;100.00
33189;BME280;52601;53.070;10.600;2023-07-29T04:21:11;100438.53;;;22.67;100.00
33189;BME280;52601;53.070;10.600;2023-07-29T04:23:57;100438.16;;;22.88;100.00
33189;BME280;52601;53.070;10.600;2023-07-29T04:26:43;100434.63;;;22.36;100.00
33189;BME280;52601;53.070;10.600;2023-07-29T04:29:29;100448.50;;;22.40;100.00
33189;BME280;52601;53.070;10.600;2023-07-29T04:32:14;100455.81;;;22.73;100.00
33189;BME280;52601;53.070;10.600;2023-07-29T04:35:00;100457.66;;;22.55;100.00
33189;BME280;52601;53.070;10.600;2023-07-29T04:37:45;100466.41;;;22.21;100.00
33189;BME280;52601;53.070;10.600;2023-07-29T04:40:33;100464.03;;;22.36;100.00
33189;BME280;52601;53.070;10.600;2023-07-29T04:43:19;100469.03;;;22.57;100.00
33189;BME280;52601;53.070;10.600;2023-07-29T04:46:08;100455.06;;;23.22;100.00
33189;BME280;52601;53.070;10.600;2023-07-29T04:48:56;100448.88;;;22.62;100.00
33189;BME280;52601;53.070;10.600;2023-07-29T04:51:41;100457.75;;;23.22;100.00
33189;BME280;52601;53.070;10.600;2023-07-29T04:54:27;100455.88;;;23.48;100.00
33189;BME280;52601;53.070;10.600;2023-07-29T04:57:12;100440.59;;;23.41;100.00
33189;BME280;52601;53.070;10.600;2023-07-29T04:59:58;100451.28;;;23.07;100.00
33189;BME280;52601;53.070;10.600;2023-07-29T05:02:44;100446.38;;;22.86;100.00
33189;BME280;52601;53.070;10.600;2023-07-29T05:05:29;100448.78;;;23.39;100.00
33189;BME280;52601;53.070;10.600;2023-07-29T05:08:14;100442.97;;;23.10;100.00
33189;BME280;52601;53.070;10.600;2023-07-29T05:11:00;100452.84;;;22.84;100.00
33189;BME280;52601;53.070;10.600;2023-07-29T05:13:46;100447.25;;;23.03;100.00
33189;BME280;52601;53.070;10.600;2023-07-29T05:16:32;100455.78;;;23.82;100.00
33189;BME280;52601;53.070;10.600;2023-07-29T05:19:18;100433.22;;;24.09;100.00
33189;BME280;52601;53.070;10.600;2023-07-29T05:22:04;100421.31;;;24.27;100.00
33189;BME280;52601;53.070;10.600;2023-07-29T05:24:49;100422.13;;;23.79;100.00
33189;BME280;52601;53.070;10.600;2023-07-29T05:27:35;100421.78;;;23.90;100.00
33189;BME280;52601;53.070;10.600;2023-07-29T05:30:21;100418.59;;;23.95;100.00
33189;BME280;52601;53.070;10.600;2023-07-29T05:33:06;100412.25;;;24.36;100.00
33189;BME280;52601;53.070;10.600;2023-07-29T05:35:55;100408.59;;;24.29;100.00
33189;BME280;52601;53.070;10.600;2023-07-29T05:38:40;100405.50;;;24.72;100.00
33189;BME280;52601;53.070;10.600;2023-07-29T05:41:26;100411.06;;;24.55;100.00
33189;BME280;52601;53.070;10.600;2023-07-29T05:44:13;100421.63;;;23.92;100.00
33189;BME280;52601;53.070;10.600;2023-07-29T05:46:58;100441.06;;;24.42;100.00
33189;BME280;52601;53.070;10.600;2023-07-29T05:49:44;100436.25;;;24.14;100.00
33189;BME280;52601;53.070;10.600;2023-07-29T05:52:31;100435.84;;;23.84;100.00
33189;BME280;52601;53.070;10.600;2023-07-29T05:55:16;100436.09;;;23.49;100.00
33189;BME280;52601;53.070;10.600;2023-07-29T05:58:02;100443.16;;;23.50;100.00
33189;BME280;52601;53.070;10.600;2023-07-29T06:00:47;100424.31;;;24.00;100.00
33189;BME280;52601;53.070;10.600;2023-07-29T06:03:34;100426.69;;;24.27;100.00
33189;BME280;52601;53.070;10.600;2023-07-29T06:06:20;100416.25;;;24.48;100.00
33189;BME280;52601;53.070;10.600;2023-07-29T06:09:06;100394.47;;;24.59;100.00
33189;BME280;52601;53.070;10.600;2023-07-29T06:11:52;100403.22;;;25.08;100.00
33189;BME280;52601;53.070;10.600;2023-07-29T06:14:40;100398.94;;;24.83;100.00
33189;BME280;52601;53.070;10.600;2023-07-29T06:17:25;100404.63;;;24.88;100.00
33189;BME280;52601;53.070;10.600;2023-07-29T06:20:11;100389.59;;;24.63;100.00
33189;BME280;52601;53.070;10.600;2023-07-29T06:22:57;100397.13;;;24.75;100.00
33189;BME280;52601;53.070;10.600;2023-07-29T06:25:42;100395.22;;;24.92;100.00
33189;BME280;52601;53.070;10.600;2023-07-29T06:28:27;100406.41;;;25.04;100.00
33189;BME280;52601;53.070;10.600;2023-07-29T06:31:13;100410.34;;;25.24;100.00
33189;BME280;52601;53.070;10.600;2023-07-29T06:34:00;100396.63;;;25.49;100.00
33189;BME280;52601;53.070;10.600;2023-07-29T06:36:45;100390.69;;;25.85;100.00
33189;BME280;52601;53.070;10.600;2023-07-29T06:39:31;100402.38;;;25.92;100.00
33189;BME280;52601;53.070;10.600;2023-07-29T06:42:16;100407.84;;;25.22;100.00
33189;BME280;52601;53.070;10.600;2023-07-29T06:45:04;100394.75;;;25.81;100.00
33189;BME280;52601;53.070;10.600;2023-07-29T06:47:49;100379.66;;;26.39;100.00
33189;BME280;52601;53.070;10.600;2023-07-29T06:50:35;100367.13;;;26.32;100.00
33189;BME280;52601;53.070;10.600;2023-07-29T06:53:21;100382.78;;;26.06;100.00
33189;BME280;52601;53.070;10.600;2023-07-29T06:56:06;100381.38;;;26.18;100.00
33189;BME280;52601;53.070;10.600;2023-07-29T06:58:52;100374.31;;;25.72;100.00
33189;BME280;52601;53.070;10.600;2023-07-29T07:01:38;100380.09;;;26.43;100.00
33189;BME280;52601;53.070;10.600;2023-07-29T07:04:23;100383.34;;;25.25;100.00
33189;BME280;52601;53.070;10.600;2023-07-29T07:07:08;100384.47;;;25.61;100.00
33189;BME280;52601;53.070;10.600;2023-07-29T07:09:54;100373.38;;;26.10;100.00
33189;BME280;52601;53.070;10.600;2023-07-29T07:12:39;100386.38;;;25.76;100.00
33189;BME280;52601;53.070;10.600;2023-07-29T07:15:25;100382.78;;;26.06;100.00
33189;BME280;52601;53.070;10.600;2023-07-29T07:18:10;100371.88;;;26.59;100.00
33189;BME280;52601;53.070;10.600;2023-07-29T07:20:56;100374.00;;;26.49;100.00
33189;BME280;52601;53.070;10.600;2023-07-29T07:23:41;100391.34;;;26.61;100.00
33189;BME280;52601;53.070;10.600;2023-07-29T07:26:27;100392.66;;;26.13;100.00
33189;BME280;52601;53.070;10.600;2023-07-29T07:29:12;100404.97;;;26.45;100.00
33189;BME280;52601;53.070;10.600;2023-07-29T07:31:58;100397.84;;;26.52;100.00
33189;BME280;52601;53.070;10.600;2023-07-29T07:34:44;100390.84;;;26.06;100.00
33189;BME280;52601;53.070;10.600;2023-07-29T07:37:30;100404.63;;;26.48;100.00
33189;BME280;52601;53.070;10.600;2023-07-29T07:40:15;100405.66;;;25.79;100.00
33189;BME280;52601;53.070;10.600;2023-07-29T07:43:01;100410.53;;;25.61;100.00
33189;BME280;52601;53.070;10.600;2023-07-29T07:45:47;100428.28;;;24.68;100.00
33189;BME280;52601;53.070;10.600;2023-07-29T07:48:32;100440.09;;;25.14;100.00
33189;BME280;52601;53.070;10.600;2023-07-29T07:51:19;100423.50;;;25.11;100.00
33189;BME280;52601;53.070;10.600;2023-07-29T07:54:04;100433.59;;;25.47;100.00
33189;BME280;52601;53.070;10.600;2023-07-29T07:56:49;100423.91;;;25.69;100.00
33189;BME280;52601;53.070;10.600;2023-07-29T07:59:35;100423.31;;;26.04;100.00
33189;BME280;52601;53.070;10.600;2023-07-29T08:02:21;100417.75;;;25.60;100.00
33189;BME280;52601;53.070;10.600;2023-07-29T08:05:06;100421.06;;;25.85;100.00
33189;BME280;52601;53.070;10.600;2023-07-29T08:07:52;100405.84;;;25.55;100.00
33189;BME280;52601;53.070;10.600;2023-07-29T08:10:38;100406.00;;;25.53;100.00
33189;BME280;52601;53.070;10.600;2023-07-29T08:13:24;100395.22;;;25.84;100.00
33189;BME280;52601;53.070;10.600;2023-07-29T08:16:09;100404.22;;;25.46;100.00
33189;BME280;52601;53.070;10.600;2023-07-29T08:18:55;100396.22;;;26.06;100.00
33189;BME280;52601;53.070;10.600;2023-07-29T08:21:41;100371.91;;;26.88;100.00
33189;BME280;52601;53.070;10.600;2023-07-29T08:24:26;100361.00;;;26.38;99.50
33189;BME280;52601;53.070;10.600;2023-07-29T08:27:12;100364.13;;;27.14;97.98
33189;BME280;52601;53.070;10.600;2023-07-29T08:29:57;100345.91;;;27.46;94.41
33189;BME280;52601;53.070;10.600;2023-07-29T08:32:43;100331.34;;;28.10;92.92
33189;BME280;52601;53.070;10.600;2023-07-29T08:35:30;100312.34;;;28.86;92.11
33189;BME280;52601;53.070;10.600;2023-07-29T08:38:15;100299.03;;;29.39;92.79
33189;BME280;52601;53.070;10.600;2023-07-29T08:41:14;100314.91;;;28.60;91.41
33189;BME280;52601;53.070;10.600;2023-07-29T08:46:50;100282.63;;;29.99;96.17
33189;BME280;52601;53.070;10.600;2023-07-29T08:49:40;100289.09;;;29.85;96.74
33189;BME280;52601;53.070;10.600;2023-07-29T08:52:26;100294.03;;;29.55;93.94
33189;BME280;52601;53.070;10.600;2023-07-29T08:55:12;100292.69;;;29.12;93.93
33189;BME280;52601;53.070;10.600;2023-07-29T08:57:59;100313.81;;;27.72;91.85
33189;BME280;52601;53.070;10.600;2023-07-29T09:00:46;100331.47;;;27.17;90.56
33189;BME280;52601;53.070;10.600;2023-07-29T09:03:31;100343.09;;;27.03;90.99
33189;BME280;52601;53.070;10.600;2023-07-29T09:06:18;100338.56;;;26.75;92.25
33189;BME280;52601;53.070;10.600;2023-07-29T09:09:05;100332.28;;;26.82;91.84
33189;BME280;52601;53.070;10.600;2023-07-29T09:11:51;100319.28;;;26.86;92.38
33189;BME280;52601;53.070;10.600;2023-07-29T09:14:36;100322.13;;;26.70;92.59
33189;BME280;52601;53.070;10.600;2023-07-29T09:17:22;100320.00;;;26.94;92.90
33189;BME280;52601;53.070;10.600;2023-07-29T09:20:09;100321.03;;;26.93;92.51
33189;BME280;52601;53.070;10.600;2023-07-29T09:22:55;100325.66;;;26.85;92.27
33189;BME280;52601;53.070;10.600;2023-07-29T09:25:43;100315.09;;;26.83;92.65
33189;BME280;52601;53.070;10.600;2023-07-29T09:28:35;100318.13;;;27.45;92.90
33189;BME280;52601;53.070;10.600;2023-07-29T09:31:23;100313.94;;;27.43;91.79
33189;BME280;52601;53.070;10.600;2023-07-29T09:34:09;100295.84;;;27.58;92.28
33189;BME280;52601;53.070;10.600;2023-07-29T09:36:54;100299.59;;;28.05;92.59
33189;BME280;52601;53.070;10.600;2023-07-29T09:39:44;100300.88;;;28.09;91.92
33189;BME280;52601;53.070;10.600;2023-07-29T09:42:29;100290.38;;;28.21;92.73
33189;BME280;52601;53.070;10.600;2023-07-29T09:45:22;100303.34;;;28.73;92.23
33189;BME280;52601;53.070;10.600;2023-07-29T09:48:08;100290.44;;;28.68;92.93
33189;BME280;52601;53.070;10.600;2023-07-29T09:50:56;100302.75;;;27.88;91.73
33189;BME280;52601;53.070;10.600;2023-07-29T09:53:43;100311.75;;;27.74;92.08
33189;BME280;52601;53.070;10.600;2023-07-29T09:56:32;100325.75;;;27.42;91.57
33189;BME280;52601;53.070;10.600;2023-07-29T09:59:19;100318.50;;;27.42;92.09
33189;BME280;52601;53.070;10.600;2023-07-29T10:02:09;100309.50;;;27.56;92.00
33189;BME280;52601;53.070;10.600;2023-07-29T10:04:59;100311.19;;;27.36;92.61
33189;BME280;52601;53.070;10.600;2023-07-29T10:07:45;100319.59;;;27.12;92.51
33189;BME280;52601;53.070;10.600;2023-07-29T10:10:32;100335.13;;;26.95;92.79
33189;BME280;52601;53.070;10.600;2023-07-29T10:13:17;100339.31;;;26.83;95.69
33189;BME280;52601;53.070;10.600;2023-07-29T10:16:03;100332.97;;;27.05;96.26
33189;BME280;52601;53.070;10.600;2023-07-29T10:18:51;100329.50;;;27.26;96.87
33189;BME280;52601;53.070;10.600;2023-07-29T10:21:39;100318.75;;;27.68;95.34
33189;BME280;52601;53.070;10.600;2023-07-29T10:24:29;100312.84;;;27.22;95.09
33189;BME280;52601;53.070;10.600;2023-07-29T10:27:17;100305.66;;;27.65;94.98
33189;BME280;52601;53.070;10.600;2023-07-29T10:30:03;100305.94;;;27.49;95.13
33189;BME280;52601;53.070;10.600;2023-07-29T10:32:49;100329.59;;;27.54;95.69
33189;BME280;52601;53.070;10.600;2023-07-29T10:35:36;100310.69;;;26.97;94.87
33189;BME280;52601;53.070;10.600;2023-07-29T10:38:23;100307.94;;;26.90;95.11
33189;BME280;52601;53.070;10.600;2023-07-29T10:41:10;100311.47;;;26.32;95.73
33189;BME280;52601;53.070;10.600;2023-07-29T10:43:55;100317.03;;;26.45;95.91
33189;BME280;52601;53.070;10.600;2023-07-29T10:46:41;100306.28;;;26.60;95.77
33189;BME280;52601;53.070;10.600;2023-07-29T10:49:29;100307.47;;;26.87;94.99
33189;BME280;52601;53.070;10.600;2023-07-29T10:52:28;100302.69;;;27.18;95.16
33189;BME280;52601;53.070;10.600;2023-07-29T10:55:28;100274.03;;;28.29;93.33
33189;BME280;52601;53.070;10.600;2023-07-29T10:58:15;100255.78;;;29.58;93.69
33189;BME280;52601;53.070;10.600;2023-07-29T11:01:12;100239.13;;;29.35;97.68
33189;BME280;52601;53.070;10.600;2023-07-29T11:10:02;100261.31;;;27.47;94.04
33189;BME280;52601;53.070;10.600;2023-07-29T11:12:51;100264.75;;;26.98;93.82
33189;BME280;52601;53.070;10.600;2023-07-29T11:15:38;100282.59;;;27.20;93.04
33189;BME280;52601;53.070;10.600;2023-07-29T11:18:29;100277.97;;;27.14;92.88
33189;BME280;52601;53.070;10.600;2023-07-29T11:21:15;100281.50;;;27.15;92.75
33189;BME280;52601;53.070;10.600;2023-07-29T11:24:01;100280.63;;;26.93;93.62
33189;BME280;52601;53.070;10.600;2023-07-29T11:26:46;100279.34;;;26.89;93.47
33189;BME280;52601;53.070;10.600;2023-07-29T11:29:32;100285.41;;;26.62;93.26
33189;BME280;52601;53.070;10.600;2023-07-29T11:32:17;100279.38;;;26.60;93.82
33189;BME280;52601;53.070;10.600;2023-07-29T11:35:14;100288.63;;;26.87;94.15
33189;BME280;52601;53.070;10.600;2023-07-29T11:38:00;100274.38;;;27.07;94.37
33189;BME280;52601;53.070;10.600;2023-07-29T11:40:56;100275.81;;;26.89;93.54
33189;BME280;52601;53.070;10.600;2023-07-29T11:43:41;100277.50;;;26.75;94.61
33189;BME280;52601;53.070;10.600;2023-07-29T11:46:28;100282.59;;;26.70;94.02
33189;BME280;52601;53.070;10.600;2023-07-29T11:49:14;100286.88;;;26.65;93.64
33189;BME280;52601;53.070;10.600;2023-07-29T11:51:59;100295.59;;;26.81;94.22
33189;BME280;52601;53.070;10.600;2023-07-29T11:54:47;100299.38;;;27.58;93.32
33189;BME280;52601;53.070;10.600;2023-07-29T11:57:35;100291.47;;;27.78;94.85
33189;BME280;52601;53.070;10.600;2023-07-29T12:00:21;100280.56;;;27.65;94.70
33189;BME280;52601;53.070;10.600;2023-07-29T12:03:07;100266.63;;;28.85;94.42
33189;BME280;52601;53.070;10.600;2023-07-29T12:05:54;100235.00;;;29.92;100.00
33189;BME280;52601;53.070;10.600;2023-07-29T12:08:40;100212.97;;;31.59;100.00
33189;BME280;52601;53.070;10.600;2023-07-29T12:11:27;100215.88;;;31.01;100.00
33189;BME280;52601;53.070;10.600;2023-07-29T12:14:13;100227.22;;;30.34;100.00
33189;BME280;52601;53.070;10.600;2023-07-29T12:17:03;100223.34;;;29.98;100.00
33189;BME280;52601;53.070;10.600;2023-07-29T12:19:49;100220.28;;;31.58;100.00
33189;BME280;52601;53.070;10.600;2023-07-29T12:22:34;100214.22;;;33.08;100.00
33189;BME280;52601;53.070;10.600;2023-07-29T12:25:20;100224.97;;;32.84;100.00
33189;BME280;52601;53.070;10.600;2023-07-29T12:28:06;100214.06;;;32.00;100.00
33189;BME280;52601;53.070;10.600;2023-07-29T12:30:53;100205.38;;;31.92;100.00
33189;BME280;52601;53.070;10.600;2023-07-29T12:33:39;100196.41;;;34.39;100.00
33189;BME280;52601;53.070;10.600;2023-07-29T12:36:41;100190.09;;;35.68;100.00
33189;BME280;52601;53.070;10.600;2023-07-29T12:39:29;100189.13;;;36.12;100.00
33189;BME280;52601;53.070;10.600;2023-07-29T12:42:16;100174.84;;;37.60;99.68
33189;BME280;52601;53.070;10.600;2023-07-29T12:45:01;100183.88;;;35.89;100.00
33189;BME280;52601;53.070;10.600;2023-07-29T12:47:47;100187.69;;;36.96;100.00
33189;BME280;52601;53.070;10.600;2023-07-29T12:50:32;100172.06;;;36.91;91.00
33189;BME280;52601;53.070;10.600;2023-07-29T12:53:18;100169.84;;;34.57;100.00
33189;BME280;52601;53.070;10.600;2023-07-29T12:56:03;100161.94;;;36.00;100.00
33189;BME280;52601;53.070;10.600;2023-07-29T12:58:49;100160.03;;;35.84;90.56
33189;BME280;52601;53.070;10.600;2023-07-29T13:01:34;100163.25;;;37.16;90.82
33189;BME280;52601;53.070;10.600;2023-07-29T13:04:20;100155.72;;;38.12;83.35
33189;BME280;52601;53.070;10.600;2023-07-29T13:07:06;100159.50;;;36.95;89.84
33189;BME280;52601;53.070;10.600;2023-07-29T13:09:52;100168.03;;;34.23;100.00
33189;BME280;52601;53.070;10.600;2023-07-29T13:12:37;100172.63;;;31.87;100.00
33189;BME280;52601;53.070;10.600;2023-07-29T13:15:23;100190.16;;;30.35;100.00
33189;BME280;52601;53.070;10.600;2023-07-29T13:18:08;100280.31;;;28.83;94.95
33189;BME280;52601;53.070;10.600;2023-07-29T13:20:54;100447.97;;;25.16;100.00
33189;BME280;52601;53.070;10.600;2023-07-29T13:23:40;100476.28;;;23.57;100.00
33189;BME280;52601;53.070;10.600;2023-07-29T13:26:25;100501.00;;;21.24;100.00
33189;BME280;52601;53.070;10.600;2023-07-29T13:29:10;100503.13;;;21.57;100.00
33189;BME280;52601;53.070;10.600;2023-07-29T13:31:56;100517.03;;;22.23;100.00
33189;BME280;52601;53.070;10.600;2023-07-29T13:34:42;100470.84;;;22.74;100.00
33189;BME280;52601;53.070;10.600;2023-07-29T13:37:28;100480.34;;;25.22;100.00
33189;BME280;52601;53.070;10.600;2023-07-29T13:40:13;100467.03;;;26.95;100.00
33189;BME280;52601;53.070;10.600;2023-07-29T13:42:59;100423.06;;;28.31;100.00
33189;BME280;52601;53.070;10.600;2023-07-29T13:45:44;100404.88;;;29.08;100.00
33189;BME280;52601;53.070;10.600;2023-07-29T13:48:30;100350.94;;;28.19;100.00
33189;BME280;52601;53.070;10.600;2023-07-29T13:51:18;100320.84;;;26.66;100.00
33189;BME280;52601;53.070;10.600;2023-07-29T13:54:03;100346.09;;;26.94;100.00
33189;BME280;52601;53.070;10.600;2023-07-29T13:56:49;100358.16;;;27.69;100.00
33189;BME280;52601;53.070;10.600;2023-07-29T13:59:35;100298.81;;;28.12;100.00
33189;BME280;52601;53.070;10.600;2023-07-29T14:02:20;100302.06;;;28.62;100.00
33189;BME280;52601;53.070;10.600;2023-07-29T14:05:06;100290.88;;;28.65;100.00
33189;BME280;52601;53.070;10.600;2023-07-29T14:07:52;100277.53;;;30.62;100.00
33189;BME280;52601;53.070;10.600;2023-07-29T14:10:38;100226.06;;;31.86;94.31
33189;BME280;52601;53.070;10.600;2023-07-29T14:13:23;100237.19;;;31.78;94.46
33189;BME280;52601;53.070;10.600;2023-07-29T14:16:09;100244.75;;;33.85;93.90
33189;BME280;52601;53.070;10.600;2023-07-29T14:18:54;100229.88;;;35.02;92.36
33189;BME280;52601;53.070;10.600;2023-07-29T14:21:40;100230.91;;;33.64;94.33
33189;BME280;52601;53.070;10.600;2023-07-29T14:24:25;100239.69;;;31.80;94.07
33189;BME280;52601;53.070;10.600;2023-07-29T14:27:11;100264.53;;;30.77;91.95